sensor_id;sensor_type;location;lat;lon;timestamp;pressure;altitude;pressure_sealevel;temperature
74539;BMP180;66042;51.090;-115.340;2023-11-19T00:01:47;85722.20;;;2.50
74539;BMP180;66042;51.090;-115.340;2023-11-19T00:04:15;85726.60;;;2.50
74539;BMP180;66042;51.090;-115.340;2023-11-19T00:06:41;85721.80;;;2.50
74539;BMP180;66042;51.090;-115.340;2023-11-19T00:09:09;85716.00;;;2.50
74539;BMP180;66042;51.090;-115.340;2023-11-19T00:11:36;85723.60;;;2.40
74539;BMP180;66042;51.090;-115.340;2023-11-19T00:14:03;85729.00;;;2.40
74539;BMP180;66042;51.090;-115.340;2023-11-19T00:16:31;85729.60;;;2.30
74539;BMP180;66042;51.090;-115.340;2023-11-19T00:18:58;85736.00;;;2.20
74539;BMP180;66042;51.090;-115.340;2023-11-19T00:21:25;85730.00;;;2.10
74539;BMP180;66042;51.090;-115.340;2023-11-19T00:23:55;85737.40;;;1.92
74539;BMP180;66042;51.090;-115.340;2023-11-19T00:26:24;85737.00;;;1.90
74539;BMP180;66042;51.090;-115.340;2023-11-19T00:28:51;85741.80;;;1.92
74539;BMP180;66042;51.090;-115.340;2023-11-19T00:31:19;85743.80;;;1.92
74539;BMP180;66042;51.090;-115.340;2023-11-19T00:33:46;85740.00;;;1.90
74539;BMP180;66042;51.090;-115.340;2023-11-19T00:36:13;85734.60;;;1.80
74539;BMP180;66042;51.090;-115.340;2023-11-19T00:38:40;85744.40;;;1.80
74539;BMP180;66042;51.090;-115.340;2023-11-19T00:41:07;85737.20;;;1.80
74539;BMP180;66042;51.090;-115.340;2023-11-19T00:43:34;85734.20;;;1.70
74539;BMP180;66042;51.090;-115.340;2023-11-19T00:46:01;85736.00;;;1.60
74539;BMP180;66042;51.090;-115.340;2023-11-19T00:48:29;85736.80;;;1.60
74539;BMP180;66042;51.090;-115.340;2023-11-19T00:50:58;85741.60;;;1.60
74539;BMP180;66042;51.090;-115.340;2023-11-19T00:53:25;85735.40;;;1.50
74539;BMP180;66042;51.090;-115.340;2023-11-19T00:55:51;85737.00;;;1.50
74539;BMP180;66042;51.090;-115.340;2023-11-19T00:58:18;85744.80;;;1.50
74539;BMP180;66042;51.090;-115.340;2023-11-19T01:00:45;85742.00;;;1.50
74539;BMP180;66042;51.090;-115.340;2023-11-19T01:03:12;85735.80;;;1.40
74539;BMP180;66042;51.090;-115.340;2023-11-19T01:05:39;85734.40;;;1.30
74539;BMP180;66042;51.090;-115.340;2023-11-19T01:08:07;85730.00;;;1.28
74539;BMP180;66042;51.090;-115.340;2023-11-19T01:10:36;85745.60;;;1.30
74539;BMP180;66042;51.090;-115.340;2023-11-19T01:13:06;85744.60;;;1.30
74539;BMP180;66042;51.090;-115.340;2023-11-19T01:15:33;85732.20;;;1.40
74539;BMP180;66042;51.090;-115.340;2023-11-19T01:18:00;85739.40;;;1.30
74539;BMP180;66042;51.090;-115.340;2023-11-19T01:20:31;85735.00;;;1.20
74539;BMP180;66042;51.090;-115.340;2023-11-19T01:23:00;85732.40;;;1.10
74539;BMP180;66042;51.090;-115.340;2023-11-19T01:25:27;85731.80;;;1.10
74539;BMP180;66042;51.090;-115.340;2023-11-19T01:27:55;85723.80;;;1.12
74539;BMP180;66042;51.090;-115.340;2023-11-19T01:30:25;85720.60;;;1.10
74539;BMP180;66042;51.090;-115.340;2023-11-19T01:32:52;85738.20;;;1.20
74539;BMP180;66042;51.090;-115.340;2023-11-19T01:35:19;85722.20;;;1.20
74539;BMP180;66042;51.090;-115.340;2023-11-19T01:37:46;85718.20;;;1.18
74539;BMP180;66042;51.090;-115.340;2023-11-19T01:40:13;85726.40;;;1.10
74539;BMP180;66042;51.090;-115.340;2023-11-19T01:42:41;85724.40;;;1.10
74539;BMP180;66042;51.090;-115.340;2023-11-19T01:45:08;85731.40;;;1.10
74539;BMP180;66042;51.090;-115.340;2023-11-19T01:47:36;85717.00;;;1.10
74539;BMP180;66042;51.090;-115.340;2023-11-19T01:50:06;85706.60;;;1.10
74539;BMP180;66042;51.090;-115.340;2023-11-19T01:52:36;85711.80;;;1.10
74539;BMP180;66042;51.090;-115.340;2023-11-19T01:55:04;85712.80;;;1.00
74539;BMP180;66042;51.090;-115.340;2023-11-19T01:57:34;85710.80;;;1.00
74539;BMP180;66042;51.090;-115.340;2023-11-19T02:00:05;85701.40;;;1.00
74539;BMP180;66042;51.090;-115.340;2023-11-19T02:02:40;85704.80;;;1.00
74539;BMP180;66042;51.090;-115.340;2023-11-19T02:05:07;85699.20;;;1.04
74539;BMP180;66042;51.090;-115.340;2023-11-19T02:07:34;85697.20;;;1.06
74539;BMP180;66042;51.090;-115.340;2023-11-19T02:10:02;85695.40;;;1.00
74539;BMP180;66042;51.090;-115.340;2023-11-19T02:12:29;85690.40;;;1.00
74539;BMP180;66042;51.090;-115.340;2023-11-19T02:14:58;85686.40;;;1.00
74539;BMP180;66042;51.090;-115.340;2023-11-19T02:17:30;85684.40;;;1.00
74539;BMP180;66042;51.090;-115.340;2023-11-19T02:20:07;85685.40;;;1.00
74539;BMP180;66042;51.090;-115.340;2023-11-19T02:22:47;85682.40;;;1.00
74539;BMP180;66042;51.090;-115.340;2023-11-19T02:25:36;85675.20;;;0.96
74539;BMP180;66042;51.090;-115.340;2023-11-19T02:28:04;85681.40;;;0.90
74539;BMP180;66042;51.090;-115.340;2023-11-19T02:30:32;85681.20;;;0.90
74539;BMP180;66042;51.090;-115.340;2023-11-19T02:32:59;85676.20;;;0.90
74539;BMP180;66042;51.090;-115.340;2023-11-19T02:35:35;85669.40;;;0.90
74539;BMP180;66042;51.090;-115.340;2023-11-19T02:38:02;85675.80;;;0.90
74539;BMP180;66042;51.090;-115.340;2023-11-19T02:40:33;85663.40;;;0.98
74539;BMP180;66042;51.090;-115.340;2023-11-19T02:43:00;85673.20;;;1.00
74539;BMP180;66042;51.090;-115.340;2023-11-19T02:45:31;85664.40;;;0.90
74539;BMP180;66042;51.090;-115.340;2023-11-19T02:47:58;85663.80;;;0.98
74539;BMP180;66042;51.090;-115.340;2023-11-19T02:50:28;85673.00;;;1.00
74539;BMP180;66042;51.090;-115.340;2023-11-19T02:52:56;85657.20;;;1.00
74539;BMP180;66042;51.090;-115.340;2023-11-19T02:55:24;85660.00;;;0.96
74539;BMP180;66042;51.090;-115.340;2023-11-19T02:57:52;85653.80;;;0.90
74539;BMP180;66042;51.090;-115.340;2023-11-19T03:00:22;85650.60;;;0.80
74539;BMP180;66042;51.090;-115.340;2023-11-19T03:03:00;85652.20;;;0.80
74539;BMP180;66042;51.090;-115.340;2023-11-19T03:05:44;85640.80;;;0.80
74539;BMP180;66042;51.090;-115.340;2023-11-19T03:08:11;85636.40;;;0.72
74539;BMP180;66042;51.090;-115.340;2023-11-19T03:10:39;85640.00;;;0.70
74539;BMP180;66042;51.090;-115.340;2023-11-19T03:13:11;85636.20;;;0.60
74539;BMP180;66042;51.090;-115.340;2023-11-19T03:15:42;85635.60;;;0.60
74539;BMP180;66042;51.090;-115.340;2023-11-19T03:18:09;85633.00;;;0.50
74539;BMP180;66042;51.090;-115.340;2023-11-19T03:20:40;85626.00;;;0.50
74539;BMP180;66042;51.090;-115.340;2023-11-19T03:23:08;85631.80;;;0.40
74539;BMP180;66042;51.090;-115.340;2023-11-19T03:25:35;85624.00;;;0.40
74539;BMP180;66042;51.090;-115.340;2023-11-19T03:28:04;85624.00;;;0.30
74539;BMP180;66042;51.090;-115.340;2023-11-19T03:30:31;85620.20;;;0.30
74539;BMP180;66042;51.090;-115.340;2023-11-19T03:32:59;85630.40;;;0.20
74539;BMP180;66042;51.090;-115.340;2023-11-19T03:35:27;85620.60;;;0.20
74539;BMP180;66042;51.090;-115.340;2023-11-19T03:37:55;85621.20;;;0.20
74539;BMP180;66042;51.090;-115.340;2023-11-19T03:40:22;85615.80;;;0.10
74539;BMP180;66042;51.090;-115.340;2023-11-19T03:42:51;85607.00;;;0.10
74539;BMP180;66042;51.090;-115.340;2023-11-19T03:45:18;85612.40;;;0.00
74539;BMP180;66042;51.090;-115.340;2023-11-19T03:47:45;85611.60;;;0.00
74539;BMP180;66042;51.090;-115.340;2023-11-19T03:50:12;85611.60;;;-0.04
74539;BMP180;66042;51.090;-115.340;2023-11-19T03:52:39;85615.60;;;-0.10
74539;BMP180;66042;51.090;-115.340;2023-11-19T03:55:07;85622.20;;;-0.10
74539;BMP180;66042;51.090;-115.340;2023-11-19T03:57:35;85613.80;;;-0.10
74539;BMP180;66042;51.090;-115.340;2023-11-19T04:00:03;85614.00;;;-0.10
74539;BMP180;66042;51.090;-115.340;2023-11-19T04:02:44;85615.40;;;-0.10
74539;BMP180;66042;51.090;-115.340;2023-11-19T04:05:13;85611.00;;;-0.18
74539;BMP180;66042;51.090;-115.340;2023-11-19T04:07:40;85605.40;;;-0.20
74539;BMP180;66042;51.090;-115.340;2023-11-19T04:10:07;85605.20;;;-0.30
74539;BMP180;66042;51.090;-115.340;2023-11-19T04:12:36;85611.40;;;-0.30
74539;BMP180;66042;51.090;-115.340;2023-11-19T04:15:02;85605.40;;;-0.30
74539;BMP180;66042;51.090;-115.340;2023-11-19T04:17:31;85601.40;;;-0.20
74539;BMP180;66042;51.090;-115.340;2023-11-19T04:19:58;85601.40;;;-0.20
74539;BMP180;66042;51.090;-115.340;2023-11-19T04:22:25;85594.80;;;-0.20
74539;BMP180;66042;51.090;-115.340;2023-11-19T04:24:52;85596.20;;;-0.20
74539;BMP180;66042;51.090;-115.340;2023-11-19T04:27:22;85582.40;;;-0.22
74539;BMP180;66042;51.090;-115.340;2023-11-19T04:29:50;85575.60;;;-0.20
74539;BMP180;66042;51.090;-115.340;2023-11-19T04:32:17;85587.60;;;-0.20
74539;BMP180;66042;51.090;-115.340;2023-11-19T04:34:44;85580.20;;;-0.30
74539;BMP180;66042;51.090;-115.340;2023-11-19T04:37:11;85584.40;;;-0.30
74539;BMP180;66042;51.090;-115.340;2023-11-19T04:39:38;85578.20;;;-0.30
74539;BMP180;66042;51.090;-115.340;2023-11-19T04:42:09;85572.80;;;-0.22
74539;BMP180;66042;51.090;-115.340;2023-11-19T04:44:38;85574.20;;;-0.20
74539;BMP180;66042;51.090;-115.340;2023-11-19T04:47:05;85574.20;;;-0.20
74539;BMP180;66042;51.090;-115.340;2023-11-19T04:49:32;85582.60;;;-0.16
74539;BMP180;66042;51.090;-115.340;2023-11-19T04:51:59;85577.60;;;-0.10
74539;BMP180;66042;51.090;-115.340;2023-11-19T04:54:31;85578.40;;;-0.10
74539;BMP180;66042;51.090;-115.340;2023-11-19T04:56:58;85585.20;;;-0.20
74539;BMP180;66042;51.090;-115.340;2023-11-19T04:59:25;85585.20;;;-0.10
74539;BMP180;66042;51.090;-115.340;2023-11-19T05:01:54;85579.40;;;-0.10
74539;BMP180;66042;51.090;-115.340;2023-11-19T05:04:20;85585.60;;;-0.12
74539;BMP180;66042;51.090;-115.340;2023-11-19T05:06:47;85577.40;;;-0.10
74539;BMP180;66042;51.090;-115.340;2023-11-19T05:09:16;85574.40;;;-0.08
74539;BMP180;66042;51.090;-115.340;2023-11-19T05:11:44;85573.20;;;0.00
74539;BMP180;66042;51.090;-115.340;2023-11-19T05:14:11;85569.40;;;0.00
74539;BMP180;66042;51.090;-115.340;2023-11-19T05:16:42;85569.40;;;0.00
74539;BMP180;66042;51.090;-115.340;2023-11-19T05:19:12;85568.60;;;0.00
74539;BMP180;66042;51.090;-115.340;2023-11-19T05:21:41;85564.20;;;-0.02
74539;BMP180;66042;51.090;-115.340;2023-11-19T05:24:08;85568.60;;;-0.10
74539;BMP180;66042;51.090;-115.340;2023-11-19T05:26:35;85566.80;;;-0.20
74539;BMP180;66042;51.090;-115.340;2023-11-19T05:29:02;85563.80;;;-0.30
74539;BMP180;66042;51.090;-115.340;2023-11-19T05:31:29;85559.20;;;-0.30
74539;BMP180;66042;51.090;-115.340;2023-11-19T05:33:56;85567.00;;;-0.40
74539;BMP180;66042;51.090;-115.340;2023-11-19T05:36:23;85560.80;;;-0.40
74539;BMP180;66042;51.090;-115.340;2023-11-19T05:38:50;85569.20;;;-0.40
74539;BMP180;66042;51.090;-115.340;2023-11-19T05:41:17;85559.40;;;-0.40
74539;BMP180;66042;51.090;-115.340;2023-11-19T05:43:45;85551.20;;;-0.36
74539;BMP180;66042;51.090;-115.340;2023-11-19T05:46:12;85549.80;;;-0.38
74539;BMP180;66042;51.090;-115.340;2023-11-19T05:48:39;85554.80;;;-0.32
74539;BMP180;66042;51.090;-115.340;2023-11-19T05:51:06;85551.80;;;-0.40
74539;BMP180;66042;51.090;-115.340;2023-11-19T05:53:33;85554.20;;;-0.42
74539;BMP180;66042;51.090;-115.340;2023-11-19T05:56:00;85552.40;;;-0.44
74539;BMP180;66042;51.090;-115.340;2023-11-19T05:58:30;85548.00;;;-0.40
74539;BMP180;66042;51.090;-115.340;2023-11-19T06:00:59;85552.00;;;-0.44
74539;BMP180;66042;51.090;-115.340;2023-11-19T06:03:30;85546.40;;;-0.42
74539;BMP180;66042;51.090;-115.340;2023-11-19T06:05:56;85550.80;;;-0.46
74539;BMP180;66042;51.090;-115.340;2023-11-19T06:08:23;85555.40;;;-0.40
74539;BMP180;66042;51.090;-115.340;2023-11-19T06:10:53;85540.20;;;-0.44
74539;BMP180;66042;51.090;-115.340;2023-11-19T06:13:20;85546.00;;;-0.50
74539;BMP180;66042;51.090;-115.340;2023-11-19T06:15:48;85541.80;;;-0.44
74539;BMP180;66042;51.090;-115.340;2023-11-19T06:18:15;85535.80;;;-0.50
74539;BMP180;66042;51.090;-115.340;2023-11-19T06:20:43;85538.00;;;-0.48
74539;BMP180;66042;51.090;-115.340;2023-11-19T06:23:10;85529.60;;;-0.50
74539;BMP180;66042;51.090;-115.340;2023-11-19T06:25:37;85543.00;;;-0.50
74539;BMP180;66042;51.090;-115.340;2023-11-19T06:28:04;85542.80;;;-0.40
74539;BMP180;66042;51.090;-115.340;2023-11-19T06:30:32;85547.00;;;-0.40
74539;BMP180;66042;51.090;-115.340;2023-11-19T06:32:59;85538.60;;;-0.40
74539;BMP180;66042;51.090;-115.340;2023-11-19T06:35:26;85538.60;;;-0.40
74539;BMP180;66042;51.090;-115.340;2023-11-19T06:37:53;85541.60;;;-0.40
74539;BMP180;66042;51.090;-115.340;2023-11-19T06:40:21;85526.40;;;-0.40
74539;BMP180;66042;51.090;-115.340;2023-11-19T06:42:48;85523.80;;;-0.50
74539;BMP180;66042;51.090;-115.340;2023-11-19T06:45:15;85529.40;;;-0.40
74539;BMP180;66042;51.090;-115.340;2023-11-19T06:47:42;85531.80;;;-0.40
74539;BMP180;66042;51.090;-115.340;2023-11-19T06:50:09;85537.20;;;-0.40
74539;BMP180;66042;51.090;-115.340;2023-11-19T06:52:38;85539.00;;;-0.40
74539;BMP180;66042;51.090;-115.340;2023-11-19T06:55:06;85535.00;;;-0.40
74539;BMP180;66042;51.090;-115.340;2023-11-19T06:57:34;85531.60;;;-0.40
74539;BMP180;66042;51.090;-115.340;2023-11-19T07:00:01;85542.40;;;-0.40
74539;BMP180;66042;51.090;-115.340;2023-11-19T07:02:28;85538.80;;;-0.30
74539;BMP180;66042;51.090;-115.340;2023-11-19T07:04:55;85535.00;;;-0.30
74539;BMP180;66042;51.090;-115.340;2023-11-19T07:07:21;85529.60;;;-0.30
74539;BMP180;66042;51.090;-115.340;2023-11-19T07:09:48;85522.40;;;-0.26
74539;BMP180;66042;51.090;-115.340;2023-11-19T07:12:15;85512.20;;;-0.30
74539;BMP180;66042;51.090;-115.340;2023-11-19T07:14:42;85522.80;;;-0.26
74539;BMP180;66042;51.090;-115.340;2023-11-19T07:17:09;85520.60;;;-0.20
74539;BMP180;66042;51.090;-115.340;2023-11-19T07:19:37;85522.60;;;-0.20
74539;BMP180;66042;51.090;-115.340;2023-11-19T07:22:05;85516.60;;;-0.20
74539;BMP180;66042;51.090;-115.340;2023-11-19T07:24:33;85522.20;;;-0.18
74539;BMP180;66042;51.090;-115.340;2023-11-19T07:27:00;85526.20;;;-0.20
74539;BMP180;66042;51.090;-115.340;2023-11-19T07:29:29;85527.00;;;-0.10
74539;BMP180;66042;51.090;-115.340;2023-11-19T07:31:56;85527.00;;;-0.10
74539;BMP180;66042;51.090;-115.340;2023-11-19T07:34:23;85530.20;;;-0.10
74539;BMP180;66042;51.090;-115.340;2023-11-19T07:36:51;85524.60;;;-0.10
74539;BMP180;66042;51.090;-115.340;2023-11-19T07:39:19;85529.00;;;-0.02
74539;BMP180;66042;51.090;-115.340;2023-11-19T07:41:50;85522.80;;;0.00
74539;BMP180;66042;51.090;-115.340;2023-11-19T07:44:17;85519.60;;;-0.10
74539;BMP180;66042;51.090;-115.340;2023-11-19T07:46:43;85524.20;;;-0.10
74539;BMP180;66042;51.090;-115.340;2023-11-19T07:49:11;85524.20;;;-0.10
74539;BMP180;66042;51.090;-115.340;2023-11-19T07:51:37;85519.40;;;-0.10
74539;BMP180;66042;51.090;-115.340;2023-11-19T07:54:05;85519.00;;;-0.10
74539;BMP180;66042;51.090;-115.340;2023-11-19T07:56:33;85509.00;;;-0.10
74539;BMP180;66042;51.090;-115.340;2023-11-19T07:59:04;85509.60;;;-0.10
74539;BMP180;66042;51.090;-115.340;2023-11-19T08:01:31;85515.00;;;-0.10
74539;BMP180;66042;51.090;-115.340;2023-11-19T08:03:58;85513.60;;;-0.10
74539;BMP180;66042;51.090;-115.340;2023-11-19T08:06:25;85517.20;;;-0.06
74539;BMP180;66042;51.090;-115.340;2023-11-19T08:08:51;85517.20;;;0.00
74539;BMP180;66042;51.090;-115.340;2023-11-19T08:11:19;85507.60;;;0.00
74539;BMP180;66042;51.090;-115.340;2023-11-19T08:13:49;85499.80;;;0.10
74539;BMP180;66042;51.090;-115.340;2023-11-19T08:16:16;85500.60;;;0.10
74539;BMP180;66042;51.090;-115.340;2023-11-19T08:18:46;85507.40;;;0.18
74539;BMP180;66042;51.090;-115.340;2023-11-19T08:21:13;85520.20;;;0.20
74539;BMP180;66042;51.090;-115.340;2023-11-19T08:23:41;85525.00;;;0.20
74539;BMP180;66042;51.090;-115.340;2023-11-19T08:26:08;85525.80;;;0.10
74539;BMP180;66042;51.090;-115.340;2023-11-19T08:28:36;85516.00;;;0.10
74539;BMP180;66042;51.090;-115.340;2023-11-19T08:31:04;85511.20;;;0.10
74539;BMP180;66042;51.090;-115.340;2023-11-19T08:33:32;85516.60;;;0.10
74539;BMP180;66042;51.090;-115.340;2023-11-19T08:35:59;85518.00;;;0.10
74539;BMP180;66042;51.090;-115.340;2023-11-19T08:38:27;85506.80;;;0.10
74539;BMP180;66042;51.090;-115.340;2023-11-19T08:40:54;85502.60;;;0.10
74539;BMP180;66042;51.090;-115.340;2023-11-19T08:43:26;85504.20;;;0.10
74539;BMP180;66042;51.090;-115.340;2023-11-19T08:45:53;85506.60;;;0.10
74539;BMP180;66042;51.090;-115.340;2023-11-19T08:48:20;85513.00;;;0.10
74539;BMP180;66042;51.090;-115.340;2023-11-19T08:50:46;85520.80;;;0.12
74539;BMP180;66042;51.090;-115.340;2023-11-19T08:53:13;85518.40;;;0.10
74539;BMP180;66042;51.090;-115.340;2023-11-19T08:55:40;85509.00;;;0.10
74539;BMP180;66042;51.090;-115.340;2023-11-19T08:58:07;85506.20;;;0.10
74539;BMP180;66042;51.090;-115.340;2023-11-19T09:00:34;85514.60;;;0.10
74539;BMP180;66042;51.090;-115.340;2023-11-19T09:03:01;85513.20;;;0.10
74539;BMP180;66042;51.090;-115.340;2023-11-19T09:05:28;85507.20;;;0.20
74539;BMP180;66042;51.090;-115.340;2023-11-19T09:07:55;85495.40;;;0.12
74539;BMP180;66042;51.090;-115.340;2023-11-19T09:10:21;85497.60;;;0.10
74539;BMP180;66042;51.090;-115.340;2023-11-19T09:12:48;85497.80;;;-0.04
74539;BMP180;66042;51.090;-115.340;2023-11-19T09:15:15;85497.60;;;-0.10
74539;BMP180;66042;51.090;-115.340;2023-11-19T09:17:43;85487.60;;;-0.10
74539;BMP180;66042;51.090;-115.340;2023-11-19T09:20:10;85500.00;;;-0.10
74539;BMP180;66042;51.090;-115.340;2023-11-19T09:22:41;85502.40;;;-0.10
74539;BMP180;66042;51.090;-115.340;2023-11-19T09:25:09;85505.00;;;-0.10
74539;BMP180;66042;51.090;-115.340;2023-11-19T09:27:35;85501.40;;;-0.20
74539;BMP180;66042;51.090;-115.340;2023-11-19T09:30:02;85500.20;;;-0.30
74539;BMP180;66042;51.090;-115.340;2023-11-19T09:32:30;85497.20;;;-0.40
74539;BMP180;66042;51.090;-115.340;2023-11-19T09:34:57;85504.80;;;-0.50
74539;BMP180;66042;51.090;-115.340;2023-11-19T09:37:24;85508.20;;;-0.44
74539;BMP180;66042;51.090;-115.340;2023-11-19T09:39:51;85500.40;;;-0.40
74539;BMP180;66042;51.090;-115.340;2023-11-19T09:42:19;85505.40;;;-0.40
74539;BMP180;66042;51.090;-115.340;2023-11-19T09:44:48;85495.20;;;-0.40
74539;BMP180;66042;51.090;-115.340;2023-11-19T09:47:17;85510.40;;;-0.30
74539;BMP180;66042;51.090;-115.340;2023-11-19T09:49:46;85503.40;;;-0.30
74539;BMP180;66042;51.090;-115.340;2023-11-19T09:52:14;85520.00;;;-0.20
74539;BMP180;66042;51.090;-115.340;2023-11-19T09:54:41;85507.40;;;-0.20
74539;BMP180;66042;51.090;-115.340;2023-11-19T09:57:08;85505.40;;;-0.20
74539;BMP180;66042;51.090;-115.340;2023-11-19T09:59:38;85495.00;;;-0.20
74539;BMP180;66042;51.090;-115.340;2023-11-19T10:02:06;85496.40;;;-0.20
74539;BMP180;66042;51.090;-115.340;2023-11-19T10:04:35;85491.60;;;-0.10
74539;BMP180;66042;51.090;-115.340;2023-11-19T10:07:03;85495.60;;;-0.10
74539;BMP180;66042;51.090;-115.340;2023-11-19T10:09:30;85486.40;;;-0.08
74539;BMP180;66042;51.090;-115.340;2023-11-19T10:11:57;85494.00;;;0.00
74539;BMP180;66042;51.090;-115.340;2023-11-19T10:14:24;85485.40;;;0.00
74539;BMP180;66042;51.090;-115.340;2023-11-19T10:16:51;85497.80;;;0.00
74539;BMP180;66042;51.090;-115.340;2023-11-19T10:19:22;85497.00;;;0.00
74539;BMP180;66042;51.090;-115.340;2023-11-19T10:21:49;85492.40;;;0.00
74539;BMP180;66042;51.090;-115.340;2023-11-19T10:24:16;85502.00;;;0.00
74539;BMP180;66042;51.090;-115.340;2023-11-19T10:26:44;85498.00;;;-0.14
74539;BMP180;66042;51.090;-115.340;2023-11-19T10:29:13;85489.60;;;-0.20
74539;BMP180;66042;51.090;-115.340;2023-11-19T10:31:40;85494.80;;;-0.20
74539;BMP180;66042;51.090;-115.340;2023-11-19T10:34:26;85497.40;;;-0.20
74539;BMP180;66042;51.090;-115.340;2023-11-19T10:36:53;85488.80;;;-0.30
74539;BMP180;66042;51.090;-115.340;2023-11-19T10:39:21;85483.40;;;-0.30
74539;BMP180;66042;51.090;-115.340;2023-11-19T10:41:49;85499.20;;;-0.20
74539;BMP180;66042;51.090;-115.340;2023-11-19T10:44:35;85507.60;;;-0.20
74539;BMP180;66042;51.090;-115.340;2023-11-19T10:47:05;85489.80;;;-0.20
74539;BMP180;66042;51.090;-115.340;2023-11-19T10:49:35;85494.40;;;-0.16
74539;BMP180;66042;51.090;-115.340;2023-11-19T10:52:03;85491.80;;;-0.20
74539;BMP180;66042;51.090;-115.340;2023-11-19T10:54:33;85493.40;;;-0.20
74539;BMP180;66042;51.090;-115.340;2023-11-19T10:57:02;85482.40;;;-0.20
74539;BMP180;66042;51.090;-115.340;2023-11-19T10:59:31;85484.20;;;-0.20
74539;BMP180;66042;51.090;-115.340;2023-11-19T11:02:03;85478.40;;;-0.20
74539;BMP180;66042;51.090;-115.340;2023-11-19T11:04:39;85485.20;;;-0.20
74539;BMP180;66042;51.090;-115.340;2023-11-19T11:07:09;85475.60;;;-0.20
74539;BMP180;66042;51.090;-115.340;2023-11-19T11:09:36;85492.60;;;-0.20
74539;BMP180;66042;51.090;-115.340;2023-11-19T11:12:05;85487.40;;;-0.20
74539;BMP180;66042;51.090;-115.340;2023-11-19T11:14:34;85473.80;;;-0.14
74539;BMP180;66042;51.090;-115.340;2023-11-19T11:17:04;85473.60;;;-0.20
74539;BMP180;66042;51.090;-115.340;2023-11-19T11:19:35;85468.20;;;-0.30
74539;BMP180;66042;51.090;-115.340;2023-11-19T11:22:04;85485.60;;;-0.30
74539;BMP180;66042;51.090;-115.340;2023-11-19T11:25:13;85474.40;;;-0.22
74539;BMP180;66042;51.090;-115.340;2023-11-19T11:28:08;85479.60;;;-0.20
74539;BMP180;66042;51.090;-115.340;2023-11-19T11:31:15;85479.60;;;-0.30
74539;BMP180;66042;51.090;-115.340;2023-11-19T11:39:29;85474.60;;;-0.30
74539;BMP180;66042;51.090;-115.340;2023-11-19T11:45:06;85477.80;;;-0.30
74539;BMP180;66042;51.090;-115.340;2023-11-19T11:50:20;85471.20;;;-0.20
74539;BMP180;66042;51.090;-115.340;2023-11-19T11:55:27;85455.80;;;-0.26
74539;BMP180;66042;51.090;-115.340;2023-11-19T11:57:57;85469.00;;;-0.32
74539;BMP180;66042;51.090;-115.340;2023-11-19T12:00:41;85465.40;;;-0.40
74539;BMP180;66042;51.090;-115.340;2023-11-19T12:03:12;85446.60;;;-0.50
74539;BMP180;66042;51.090;-115.340;2023-11-19T12:05:45;85469.80;;;-0.50
74539;BMP180;66042;51.090;-115.340;2023-11-19T12:08:13;85441.20;;;-0.50
74539;BMP180;66042;51.090;-115.340;2023-11-19T12:10:51;85438.40;;;-0.50
74539;BMP180;66042;51.090;-115.340;2023-11-19T12:13:20;85459.20;;;-0.50
74539;BMP180;66042;51.090;-115.340;2023-11-19T12:18:32;85444.20;;;-0.40
74539;BMP180;66042;51.090;-115.340;2023-11-19T12:21:00;85458.20;;;-0.36
74539;BMP180;66042;51.090;-115.340;2023-11-19T12:23:30;85458.00;;;-0.30
74539;BMP180;66042;51.090;-115.340;2023-11-19T12:25:58;85431.80;;;-0.30
74539;BMP180;66042;51.090;-115.340;2023-11-19T12:28:25;85440.80;;;-0.30
74539;BMP180;66042;51.090;-115.340;2023-11-19T12:31:08;85452.00;;;-0.30
74539;BMP180;66042;51.090;-115.340;2023-11-19T12:33:37;85462.40;;;-0.30
74539;BMP180;66042;51.090;-115.340;2023-11-19T12:36:05;85449.60;;;-0.28
74539;BMP180;66042;51.090;-115.340;2023-11-19T12:38:31;85460.00;;;-0.20
74539;BMP180;66042;51.090;-115.340;2023-11-19T12:41:08;85455.00;;;-0.30
74539;BMP180;66042;51.090;-115.340;2023-11-19T12:43:37;85452.60;;;-0.20
74539;BMP180;66042;51.090;-115.340;2023-11-19T12:46:26;85472.40;;;-0.20
74539;BMP180;66042;51.090;-115.340;2023-11-19T12:48:53;85449.20;;;-0.20
74539;BMP180;66042;51.090;-115.340;2023-11-19T12:51:20;85454.20;;;-0.20
74539;BMP180;66042;51.090;-115.340;2023-11-19T12:53:53;85449.60;;;-0.20
74539;BMP180;66042;51.090;-115.340;2023-11-19T12:56:21;85459.80;;;-0.20
74539;BMP180;66042;51.090;-115.340;2023-11-19T12:58:49;85449.20;;;-0.20
74539;BMP180;66042;51.090;-115.340;2023-11-19T13:01:18;85470.00;;;-0.12
74539;BMP180;66042;51.090;-115.340;2023-11-19T13:03:46;85458.60;;;-0.10
74539;BMP180;66042;51.090;-115.340;2023-11-19T13:06:15;85460.80;;;-0.10
74539;BMP180;66042;51.090;-115.340;2023-11-19T13:08:46;85455.40;;;-0.10
74539;BMP180;66042;51.090;-115.340;2023-11-19T13:11:34;85472.60;;;-0.10
74539;BMP180;66042;51.090;-115.340;2023-11-19T13:14:05;85463.20;;;-0.10
74539;BMP180;66042;51.090;-115.340;2023-11-19T13:16:37;85475.40;;;0.00
74539;BMP180;66042;51.090;-115.340;2023-11-19T13:19:09;85480.40;;;0.00
74539;BMP180;66042;51.090;-115.340;2023-11-19T13:21:36;85480.60;;;0.00
74539;BMP180;66042;51.090;-115.340;2023-11-19T13:24:04;85473.00;;;0.00
74539;BMP180;66042;51.090;-115.340;2023-11-19T13:26:32;85488.20;;;0.00
74539;BMP180;66042;51.090;-115.340;2023-11-19T13:28:58;85483.40;;;0.00
74539;BMP180;66042;51.090;-115.340;2023-11-19T13:31:26;85479.20;;;0.10
74539;BMP180;66042;51.090;-115.340;2023-11-19T13:33:52;85480.40;;;0.08
74539;BMP180;66042;51.090;-115.340;2023-11-19T13:36:20;85477.40;;;0.10
74539;BMP180;66042;51.090;-115.340;2023-11-19T13:38:46;85488.60;;;0.10
74539;BMP180;66042;51.090;-115.340;2023-11-19T13:41:13;85486.80;;;0.18
74539;BMP180;66042;51.090;-115.340;2023-11-19T13:43:40;85496.80;;;0.16
74539;BMP180;66042;51.090;-115.340;2023-11-19T13:46:07;85480.40;;;0.10
74539;BMP180;66042;51.090;-115.340;2023-11-19T13:48:36;85478.80;;;0.10
74539;BMP180;66042;51.090;-115.340;2023-11-19T13:51:03;85491.20;;;0.10
74539;BMP180;66042;51.090;-115.340;2023-11-19T13:53:30;85482.40;;;0.10
74539;BMP180;66042;51.090;-115.340;2023-11-19T13:55:57;85494.00;;;0.10
74539;BMP180;66042;51.090;-115.340;2023-11-19T13:58:24;85506.60;;;0.10
74539;BMP180;66042;51.090;-115.340;2023-11-19T14:00:50;85496.20;;;0.10
74539;BMP180;66042;51.090;-115.340;2023-11-19T14:03:17;85514.60;;;0.10
74539;BMP180;66042;51.090;-115.340;2023-11-19T14:05:44;85520.60;;;0.10